KHYR/HYR METAR and TAF weather

Enter ICAO airport designator
Station Type Date Time Source
KHYR METAR 2019/08/20 09:53 UTC NOAA

KHYR 200953Z AUTO 00000KT 10SM CLR 11/09 A2996 RMK AO2 PRESFR SLP142 T01060094


Station Type Date Time Source
KHYR Decoded METAR 2019/08/20 09:53 UTC NOAA

HAYWARD MUNICIPAL AIRPORT, WI, United States (KHYR) 46-01N 91-27W 370M
Aug 20, 2019 - 05:53 AM EDT / 2019.08.20 0953 UTC
Wind: Calm:0
Visibility: 10 mile(s):0
Sky conditions: clear
Temperature: 51.1 F (10.6 C)
Dew Point: 48.9 F (9.4 C)
Relative Humidity: 92%
Pressure (altimeter): 29.96 in. Hg (1014 hPa)
Pressure tendency: falling rapidly
ob: KHYR 200953Z AUTO 00000KT 10SM CLR 11/09 A2996 RMK AO2 PRESFR SLP142 T01060094
cycle: 10

Station Type Date Time Source
KHYR TAF 2019/08/20 06:42 UTC NOAA

TAF KHYR 200539Z 2006/2106 19002KT P6SM FEW150
FM201700 22006KT P6SM SHRA VCTS BKN050CB
FM202100 23005KT P6SM VCSH OVC026
FM210100 33004KT P6SM BKN060

Example: see airport list